Time;durP1;ratioP1;P1;durP2;ratioP2;P2;SDS_P1;SDS_P2;PMS_P1;PMS_P2;Temp;Humidity;BMP_temperature;BMP_pressure;BME280_temperature;BME280_humidity;BME280_pressure;Samples;Min_cycle;Max_cycle;Signal;HPM_P1;HPM_P2
2022/01/13 00:02:03;;;;;;;31.88;18.75;;;;;;;;;;5054681;28;20107;-74
2022/01/13 00:04:29;;;;;;;31.08;19.33;;;;;;;;;;5038228;28;20025;-74
2022/01/13 00:06:56;;;;;;;35.00;19.60;;;;;;;;;;5054862;28;20176;-74
2022/01/13 00:09:22;;;;;;;38.97;21.55;;;;;;;;;;5054485;28;20033;-74
2022/01/13 00:11:49;;;;;;;30.60;19.52;;;;;;;;;;5054571;28;20033;-74
2022/01/13 00:16:56;;;;;;;39.33;21.80;;;;;;;;;;5054147;28;20021;-74
2022/01/13 00:19:34;;;;;;;36.45;21.05;;;;;;;;;;5054178;28;20526;-74
2022/01/13 00:22:14;;;;;;;36.13;21.77;;;;;;;;;;5036255;28;20053;-74
2022/01/13 00:24:43;;;;;;;33.90;20.25;;;;;;;;;;5036160;28;20119;-74
2022/01/13 00:27:12;;;;;;;32.50;20.35;;;;;;;;;;5054207;28;20024;-74
2022/01/13 00:29:43;;;;;;;34.70;19.70;;;;;;;;;;5056184;28;20032;-73
2022/01/13 00:32:10;;;;;;;31.50;19.08;;;;;;;;;;5036925;28;20021;-74
2022/01/13 00:34:36;;;;;;;32.45;16.63;;;;;;;;;;5035987;28;20060;-73
2022/01/13 00:37:02;;;;;;;29.27;16.90;;;;;;;;;;5054151;28;20431;-73
2022/01/13 00:39:28;;;;;;;22.23;15.00;;;;;;;;;;5053889;28;20107;-74
2022/01/13 00:41:54;;;;;;;22.52;15.05;;;;;;;;;;5036008;28;20059;-74
2022/01/13 00:44:21;;;;;;;23.58;14.55;;;;;;;;;;5035894;28;20021;-73
2022/01/13 00:46:50;;;;;;;23.42;14.23;;;;;;;;;;5053826;28;20092;-75
2022/01/13 00:49:16;;;;;;;21.92;13.30;;;;;;;;;;5053779;28;20147;-74
2022/01/13 00:51:43;;;;;;;22.45;13.13;;;;;;;;;;5053668;28;20025;-74
2022/01/13 00:54:09;;;;;;;18.27;12.00;;;;;;;;;;5052567;28;20029;-73
2022/01/13 00:56:36;;;;;;;19.17;12.38;;;;;;;;;;5053806;28;20031;-73
2022/01/13 00:59:07;;;;;;;14.98;10.70;;;;;;;;;;5035605;28;20027;-73
2022/01/13 01:01:37;;;;;;;18.63;11.70;;;;;;;;;;5054359;28;20025;-74
2022/01/13 01:04:04;;;;;;;19.20;11.95;;;;;;;;;;5053365;28;20020;-73
2022/01/13 01:06:30;;;;;;;22.00;13.15;;;;;;;;;;5037109;28;20021;-73
2022/01/13 01:08:57;;;;;;;20.40;12.93;;;;;;;;;;5053966;28;20024;-73
2022/01/13 01:11:25;;;;;;;19.65;11.68;;;;;;;;;;5053645;28;20040;-73
2022/01/13 01:13:52;;;;;;;20.80;12.60;;;;;;;;;;5053204;28;20025;-73
2022/01/13 01:16:18;;;;;;;20.13;13.10;;;;;;;;;;5035514;28;20116;-74
2022/01/13 01:18:54;;;;;;;;;;;;;;;;;;;;;
2022/01/13 01:24:10;;;;;;;19.98;11.82;;;;;;;;;;5053301;28;20056;-74
2022/01/13 01:29:10;;;;;;;20.42;10.88;;;;;;;;;;5053078;28;20127;-73
2022/01/13 01:31:39;;;;;;;21.17;12.05;;;;;;;;;;5052893;28;20017;-73
2022/01/13 01:36:51;;;;;;;18.67;9.77;;;;;;;;;;5053090;28;20029;-73
2022/01/13 01:39:17;;;;;;;23.30;11.68;;;;;;;;;;5052778;28;20112;-74
2022/01/13 01:41:44;;;;;;;19.17;11.43;;;;;;;;;;5052834;28;20477;-75
2022/01/13 01:44:11;;;;;;;15.23;9.23;;;;;;;;;;5052333;28;20494;-73
2022/01/13 01:46:39;;;;;;;18.77;9.60;;;;;;;;;;5052673;28;20025;-74
2022/01/13 01:49:15;;;;;;;19.17;9.32;;;;;;;;;;5052834;28;20036;-74
2022/01/13 01:51:41;;;;;;;20.70;9.68;;;;;;;;;;5038973;28;20083;-74
2022/01/13 01:54:07;;;;;;;17.95;9.80;;;;;;;;;;5048205;28;20033;-74
2022/01/13 01:56:33;;;;;;;16.60;10.00;;;;;;;;;;5034945;28;20522;-74
2022/01/13 01:59:02;;;;;;;15.35;8.98;;;;;;;;;;5052506;28;20104;-74
2022/01/13 02:01:29;;;;;;;22.00;10.50;;;;;;;;;;5034462;28;20552;-74
2022/01/13 02:03:55;;;;;;;17.83;9.45;;;;;;;;;;5051933;28;20033;-73
2022/01/13 02:06:21;;;;;;;19.50;10.40;;;;;;;;;;5033773;28;20037;-74
2022/01/13 02:08:47;;;;;;;17.50;10.65;;;;;;;;;;5050031;28;20029;-74
2022/01/13 02:11:14;;;;;;;20.48;9.63;;;;;;;;;;5052476;28;20549;-73
2022/01/13 02:13:47;;;;;;;13.18;8.45;;;;;;;;;;5052382;28;20032;-74
2022/01/13 02:18:58;;;;;;;18.10;9.23;;;;;;;;;;5051852;28;20461;-74
2022/01/13 02:21:28;;;;;;;16.10;8.80;;;;;;;;;;5051970;28;20021;-74
2022/01/13 02:23:56;;;;;;;15.55;8.40;;;;;;;;;;5051793;28;20090;-74
2022/01/13 02:26:22;;;;;;;15.15;8.48;;;;;;;;;;5051945;28;20041;-74
2022/01/13 02:28:51;;;;;;;13.30;7.95;;;;;;;;;;5033836;28;20033;-74
2022/01/13 02:31:18;;;;;;;14.55;8.55;;;;;;;;;;5034039;28;20075;-74
2022/01/13 02:33:44;;;;;;;13.93;8.48;;;;;;;;;;5051986;28;20135;-74
2022/01/13 02:36:11;;;;;;;14.73;9.13;;;;;;;;;;5034967;28;20537;-74
2022/01/13 02:38:37;;;;;;;18.48;9.38;;;;;;;;;;5052859;28;20013;-74
2022/01/13 02:41:04;;;;;;;15.30;7.80;;;;;;;;;;5052147;28;20389;-74
2022/01/13 02:43:31;;;;;;;19.77;8.90;;;;;;;;;;5051598;28;20025;-73
2022/01/13 02:46:18;;;;;;;15.65;7.80;;;;;;;;;;5034150;28;20485;-73
2022/01/13 02:48:44;;;;;;;13.10;6.90;;;;;;;;;;5037806;28;20024;-74
2022/01/13 02:51:10;;;;;;;12.48;7.88;;;;;;;;;;5052890;28;20044;-74
2022/01/13 02:53:36;;;;;;;15.15;8.35;;;;;;;;;;5051767;28;20507;-73
2022/01/13 02:56:06;;;;;;;17.63;7.93;;;;;;;;;;5052089;28;20477;-74
2022/01/13 02:58:33;;;;;;;15.90;8.13;;;;;;;;;;5036445;28;20033;-74
2022/01/13 03:01:00;;;;;;;13.68;7.60;;;;;;;;;;5034209;28;20040;-73
2022/01/13 03:03:27;;;;;;;12.02;7.15;;;;;;;;;;5051209;28;20025;-73
2022/01/13 03:05:53;;;;;;;15.93;8.30;;;;;;;;;;5051467;28;20544;-75
2022/01/13 03:08:19;;;;;;;16.02;8.40;;;;;;;;;;5033345;28;20138;-73
2022/01/13 03:10:45;;;;;;;15.88;8.05;;;;;;;;;;5051575;28;20040;-73
2022/01/13 03:13:11;;;;;;;15.43;8.13;;;;;;;;;;5033084;28;20028;-73
2022/01/13 03:15:37;;;;;;;15.77;8.10;;;;;;;;;;5051191;28;20032;-73
2022/01/13 03:18:03;;;;;;;15.88;8.20;;;;;;;;;;5033753;28;20482;-74
2022/01/13 03:20:29;;;;;;;15.27;8.82;;;;;;;;;;5039155;28;20117;-75
2022/01/13 03:22:55;;;;;;;18.10;8.70;;;;;;;;;;5055484;28;20021;-75
2022/01/13 03:25:23;;;;;;;15.30;8.48;;;;;;;;;;5055745;28;20036;-74
2022/01/13 03:27:55;;;;;;;15.43;8.50;;;;;;;;;;5055331;28;20087;-74
2022/01/13 03:30:21;;;;;;;16.63;8.77;;;;;;;;;;5055696;28;20385;-74
2022/01/13 03:32:47;;;;;;;18.00;10.18;;;;;;;;;;5055504;28;20013;-74
2022/01/13 03:35:13;;;;;;;14.88;9.20;;;;;;;;;;5037439;28;20112;-74
2022/01/13 03:37:39;;;;;;;21.23;9.80;;;;;;;;;;5055225;28;20021;-74
2022/01/13 03:40:05;;;;;;;17.42;10.38;;;;;;;;;;5055028;28;20116;-74
2022/01/13 03:42:31;;;;;;;17.90;9.10;;;;;;;;;;5054944;28;20075;-74
2022/01/13 03:44:58;;;;;;;18.77;9.98;;;;;;;;;;5054988;28;20021;-74
2022/01/13 03:47:24;;;;;;;16.85;9.63;;;;;;;;;;5055288;28;20108;-74
2022/01/13 03:49:51;;;;;;;14.25;8.25;;;;;;;;;;5037140;28;20032;-74
2022/01/13 03:52:19;;;;;;;13.63;8.38;;;;;;;;;;5055870;28;20117;-73
2022/01/13 03:55:04;;;;;;;12.93;8.23;;;;;;;;;;5054684;28;20032;-74
2022/01/13 03:57:39;;;;;;;18.52;9.75;;;;;;;;;;5055346;28;20045;-74
2022/01/13 04:00:24;;;;;;;14.20;9.18;;;;;;;;;;5057535;28;20085;-75
2022/01/13 04:02:50;;;;;;;14.98;7.88;;;;;;;;;;5061450;28;20081;-74
2022/01/13 04:05:16;;;;;;;14.88;7.63;;;;;;;;;;5054994;28;20061;-74
2022/01/13 04:07:42;;;;;;;14.25;8.30;;;;;;;;;;5054766;28;20059;-74
2022/01/13 04:10:20;;;;;;;14.43;8.07;;;;;;;;;;5054906;28;20029;-74
2022/01/13 04:12:46;;;;;;;14.32;7.85;;;;;;;;;;5055177;28;20104;-74
2022/01/13 04:15:14;;;;;;;14.75;7.55;;;;;;;;;;5054598;28;20045;-74
2022/01/13 04:17:40;;;;;;;17.67;9.35;;;;;;;;;;5054221;28;20029;-74
2022/01/13 04:20:07;;;;;;;17.48;9.25;;;;;;;;;;5054527;28;20063;-75
2022/01/13 04:22:33;;;;;;;17.80;8.45;;;;;;;;;;5054578;28;20024;-74
2022/01/13 04:24:59;;;;;;;14.10;7.57;;;;;;;;;;5054354;28;20483;-74
2022/01/13 04:27:28;;;;;;;13.23;7.53;;;;;;;;;;5053949;28;20036;-74
2022/01/13 04:30:23;;;;;;;16.40;6.03;;;;;;;;;;5053673;28;20033;-75
2022/01/13 04:32:46;;;;;;;14.15;6.90;;;;;;;;;;5039787;28;20043;-74
2022/01/13 04:35:12;;;;;;;13.40;6.78;;;;;;;;;;5054110;28;20398;-74
2022/01/13 04:37:38;;;;;;;14.30;7.28;;;;;;;;;;5036301;28;20068;-74
2022/01/13 04:40:08;;;;;;;17.02;6.57;;;;;;;;;;5054084;28;20020;-74
2022/01/13 04:42:35;;;;;;;13.50;6.90;;;;;;;;;;5053973;28;20044;-75
2022/01/13 04:45:03;;;;;;;10.57;6.15;;;;;;;;;;5053725;28;20017;-74
2022/01/13 04:47:29;;;;;;;10.23;6.13;;;;;;;;;;5054220;28;20056;-74
2022/01/13 04:49:55;;;;;;;10.75;5.85;;;;;;;;;;5036078;28;20029;-74
2022/01/13 04:52:21;;;;;;;12.27;6.32;;;;;;;;;;5053742;28;20044;-74
2022/01/13 04:54:47;;;;;;;9.85;5.95;;;;;;;;;;5053580;28;20032;-74
2022/01/13 04:57:17;;;;;;;9.43;5.10;;;;;;;;;;5053605;28;20025;-74
2022/01/13 04:59:43;;;;;;;12.13;6.15;;;;;;;;;;5036070;28;20017;-75
2022/01/13 05:02:09;;;;;;;11.65;6.63;;;;;;;;;;5053622;28;20024;-74
2022/01/13 05:04:35;;;;;;;11.93;5.88;;;;;;;;;;5053697;28;20367;-74
2022/01/13 05:07:01;;;;;;;11.20;6.15;;;;;;;;;;5035767;28;20029;-75
2022/01/13 05:09:27;;;;;;;8.20;5.15;;;;;;;;;;5053429;28;20029;-74
2022/01/13 05:11:53;;;;;;;12.25;5.47;;;;;;;;;;5053578;28;20074;-73
2022/01/13 05:14:19;;;;;;;12.23;5.60;;;;;;;;;;5053401;28;20069;-72
2022/01/13 05:19:18;;;;;;;8.75;5.65;;;;;;;;;;5052902;28;20478;-74
2022/01/13 05:24:26;;;;;;;12.07;5.28;;;;;;;;;;5053536;28;20028;-74
2022/01/13 05:26:52;;;;;;;14.82;6.43;;;;;;;;;;5053457;28;20048;-74
2022/01/13 05:29:20;;;;;;;11.63;5.45;;;;;;;;;;5090945;22;20045;-77
2022/01/13 05:31:47;;;;;;;8.80;5.80;;;;;;;;;;5060888;28;20035;-79
2022/01/13 05:34:16;;;;;;;11.77;5.32;;;;;;;;;;5077014;28;20056;-78
2022/01/13 05:36:42;;;;;;;9.30;5.60;;;;;;;;;;5074747;28;20064;-77
2022/01/13 05:39:11;;;;;;;11.73;6.78;;;;;;;;;;5059191;28;20044;-77
2022/01/13 05:41:37;;;;;;;12.27;6.75;;;;;;;;;;5055513;28;20081;-76
2022/01/13 05:44:08;;;;;;;12.02;6.15;;;;;;;;;;5029735;28;20025;-77
2022/01/13 05:46:35;;;;;;;10.98;6.65;;;;;;;;;;5011712;28;20017;-77
2022/01/13 05:49:01;;;;;;;11.80;6.50;;;;;;;;;;5055617;28;20029;-77
2022/01/13 05:51:27;;;;;;;14.20;7.22;;;;;;;;;;5033184;28;20025;-77
2022/01/13 05:53:55;;;;;;;12.88;7.60;;;;;;;;;;5041305;28;20396;-78
2022/01/13 05:56:24;;;;;;;15.77;6.95;;;;;;;;;;5052390;28;20036;-78
2022/01/13 05:58:50;;;;;;;14.82;7.03;;;;;;;;;;5039739;28;20017;-77
2022/01/13 06:01:17;;;;;;;12.02;6.43;;;;;;;;;;5042143;28;20040;-78
2022/01/13 06:03:47;;;;;;;10.75;5.82;;;;;;;;;;5046165;28;20455;-77
2022/01/13 06:06:16;;;;;;;13.57;7.20;;;;;;;;;;5035558;28;20545;-77
2022/01/13 06:08:45;;;;;;;11.25;7.03;;;;;;;;;;5047124;28;20084;-77
2022/01/13 06:11:11;;;;;;;15.73;6.85;;;;;;;;;;5023529;28;20035;-77
2022/01/13 06:13:37;;;;;;;11.15;6.00;;;;;;;;;;5038880;28;20022;-77
2022/01/13 06:16:05;;;;;;;10.07;6.10;;;;;;;;;;5047986;28;20418;-75
2022/01/13 06:18:41;;;;;;;11.60;6.38;;;;;;;;;;5002110;28;20545;-78
2022/01/13 06:21:07;;;;;;;14.88;6.55;;;;;;;;;;5025235;28;20022;-77
2022/01/13 06:23:33;;;;;;;9.38;6.88;;;;;;;;;;5044035;28;20372;-76
2022/01/13 06:26:06;;;;;;;16.48;7.75;;;;;;;;;;5035916;28;20029;-77
2022/01/13 06:28:32;;;;;;;12.13;6.68;;;;;;;;;;5019177;28;20483;-77
2022/01/13 06:31:00;;;;;;;12.63;7.15;;;;;;;;;;5044268;28;20083;-77
2022/01/13 06:33:26;;;;;;;13.85;7.53;;;;;;;;;;5042631;28;20040;-78
2022/01/13 06:35:52;;;;;;;12.50;7.75;;;;;;;;;;5018936;28;20026;-78
2022/01/13 06:38:23;;;;;;;13.35;7.93;;;;;;;;;;5047733;28;20072;-77
2022/01/13 06:40:49;;;;;;;13.80;7.32;;;;;;;;;;5037956;28;20075;-78
2022/01/13 06:43:18;;;;;;;16.45;7.85;;;;;;;;;;5023809;28;20029;-77
2022/01/13 06:45:51;;;;;;;16.13;8.18;;;;;;;;;;5045233;28;20036;-76
2022/01/13 06:48:20;;;;;;;15.45;7.38;;;;;;;;;;5033078;28;20041;-77
2022/01/13 06:50:48;;;;;;;13.25;7.10;;;;;;;;;;5047328;28;20053;-77
2022/01/13 06:53:14;;;;;;;14.52;8.18;;;;;;;;;;5039897;28;20025;-77
2022/01/13 06:55:43;;;;;;;12.07;7.75;;;;;;;;;;5042915;28;20079;-76
2022/01/13 06:58:09;;;;;;;11.65;7.30;;;;;;;;;;5033665;28;20395;-77
2022/01/13 07:00:35;;;;;;;12.98;7.43;;;;;;;;;;5028237;28;20013;-77
2022/01/13 07:03:04;;;;;;;13.85;7.50;;;;;;;;;;5038063;28;20021;-74
2022/01/13 07:05:30;;;;;;;11.80;7.90;;;;;;;;;;5039756;28;20018;-75
2022/01/13 07:07:58;;;;;;;16.23;8.63;;;;;;;;;;5046586;28;20043;-76
2022/01/13 07:10:24;;;;;;;14.50;7.82;;;;;;;;;;5034968;28;20029;-77
2022/01/13 07:12:50;;;;;;;16.38;7.95;;;;;;;;;;5047685;28;20423;-76
2022/01/13 07:15:17;;;;;;;14.55;6.93;;;;;;;;;;5040964;28;20036;-75
2022/01/13 07:17:43;;;;;;;19.08;7.93;;;;;;;;;;5044851;28;20021;-76
2022/01/13 07:20:17;;;;;;;17.55;8.20;;;;;;;;;;5034250;28;20042;-76
2022/01/13 07:22:46;;;;;;;19.77;9.70;;;;;;;;;;5027720;28;20013;-76
2022/01/13 07:25:12;;;;;;;12.05;8.18;;;;;;;;;;5023095;28;20044;-77
2022/01/13 07:27:39;;;;;;;13.38;7.85;;;;;;;;;;5037596;28;20033;-76
2022/01/13 07:30:05;;;;;;;13.40;7.60;;;;;;;;;;5047688;28;20037;-77
2022/01/13 07:32:31;;;;;;;17.67;7.93;;;;;;;;;;5034720;28;20033;-75
2022/01/13 07:34:57;;;;;;;12.32;7.07;;;;;;;;;;5043130;28;20100;-76
2022/01/13 07:37:24;;;;;;;14.95;7.80;;;;;;;;;;5041709;28;20100;-76
2022/01/13 07:39:50;;;;;;;12.70;7.00;;;;;;;;;;5036003;28;20546;-76
2022/01/13 07:42:16;;;;;;;15.45;8.15;;;;;;;;;;5029160;28;20493;-75
2022/01/13 07:44:43;;;;;;;13.18;7.47;;;;;;;;;;5036245;28;20017;-76
2022/01/13 07:47:09;;;;;;;13.13;7.30;;;;;;;;;;5042050;28;20049;-75
2022/01/13 07:49:35;;;;;;;14.73;7.68;;;;;;;;;;5043091;28;20475;-75
2022/01/13 07:52:01;;;;;;;14.73;7.07;;;;;;;;;;5048034;28;20029;-75
2022/01/13 07:54:30;;;;;;;20.08;8.20;;;;;;;;;;5033856;28;20040;-75
2022/01/13 07:56:56;;;;;;;16.63;8.05;;;;;;;;;;5043455;28;20411;-76
2022/01/13 07:59:27;;;;;;;15.82;8.45;;;;;;;;;;5015701;28;20057;-74
2022/01/13 08:01:53;;;;;;;15.10;6.97;;;;;;;;;;5045574;28;20025;-73
2022/01/13 08:04:19;;;;;;;16.42;7.30;;;;;;;;;;5050998;28;20029;-76
2022/01/13 08:06:45;;;;;;;15.35;7.90;;;;;;;;;;5018970;28;20018;-76
2022/01/13 08:09:11;;;;;;;71.63;30.40;;;;;;;;;;5025442;28;20013;-77
2022/01/13 08:11:37;;;;;;;15.95;7.65;;;;;;;;;;5036442;28;20497;-77
2022/01/13 08:14:03;;;;;;;45.35;17.15;;;;;;;;;;5019819;28;20017;-75
2022/01/13 08:16:33;;;;;;;164.07;63.78;;;;;;;;;;5026397;28;20025;-75
2022/01/13 08:21:44;;;;;;;79.43;30.33;;;;;;;;;;5047854;28;20040;-76
2022/01/13 08:24:10;;;;;;;103.32;36.53;;;;;;;;;;5037464;28;20021;-75
2022/01/13 08:26:36;;;;;;;51.22;19.05;;;;;;;;;;5049603;28;20033;-75
2022/01/13 08:29:03;;;;;;;108.40;44.33;;;;;;;;;;5024246;28;20028;-76
2022/01/13 08:31:29;;;;;;;31.35;13.65;;;;;;;;;;5042062;28;20367;-74
2022/01/13 08:33:55;;;;;;;29.48;12.68;;;;;;;;;;5030936;28;20040;-77
2022/01/13 08:36:21;;;;;;;46.28;18.52;;;;;;;;;;5037708;28;20108;-76
2022/01/13 08:38:49;;;;;;;120.85;45.13;;;;;;;;;;5048157;28;20210;-76
2022/01/13 08:41:15;;;;;;;41.33;17.00;;;;;;;;;;5043749;28;20414;-73
2022/01/13 08:43:41;;;;;;;63.08;24.02;;;;;;;;;;5039977;28;20025;-74
2022/01/13 08:46:07;;;;;;;53.85;21.98;;;;;;;;;;5033205;28;20025;-79
2022/01/13 08:48:34;;;;;;;22.63;10.25;;;;;;;;;;5038046;28;20032;-79
2022/01/13 08:51:00;;;;;;;17.08;7.70;;;;;;;;;;5051325;28;20029;-74
2022/01/13 08:53:26;;;;;;;36.42;14.27;;;;;;;;;;5042883;28;20029;-76
2022/01/13 08:55:54;;;;;;;171.00;75.72;;;;;;;;;;5033292;28;20029;-76
2022/01/13 08:58:20;;;;;;;46.25;22.80;;;;;;;;;;5050138;28;20566;-80
2022/01/13 09:00:46;;;;;;;66.57;27.73;;;;;;;;;;5022493;28;20025;-77
2022/01/13 09:03:14;;;;;;;55.70;24.30;;;;;;;;;;5035757;28;20021;-79
2022/01/13 09:05:40;;;;;;;129.85;56.15;;;;;;;;;;5022958;28;20029;-75
2022/01/13 09:08:07;;;;;;;12.93;7.45;;;;;;;;;;5037558;28;20327;-79
2022/01/13 09:10:33;;;;;;;31.92;13.63;;;;;;;;;;5051474;28;20103;-78
2022/01/13 09:12:59;;;;;;;31.70;12.98;;;;;;;;;;5044778;28;20025;-73
2022/01/13 09:15:37;;;;;;;21.13;7.50;;;;;;;;;;5041640;28;20276;-73
2022/01/13 09:18:09;;;;;;;44.13;19.05;;;;;;;;;;5031179;28;20022;-73
2022/01/13 09:20:36;;;;;;;42.30;18.35;;;;;;;;;;5031503;28;20028;-72
2022/01/13 09:23:03;;;;;;;25.45;11.45;;;;;;;;;;5032663;28;20451;-72
2022/01/13 09:25:29;;;;;;;25.15;11.40;;;;;;;;;;5033067;28;20121;-71
2022/01/13 09:27:54;;;;;;;17.48;8.73;;;;;;;;;;5032453;28;20053;-72
2022/01/13 09:30:20;;;;;;;24.48;9.75;;;;;;;;;;5015104;28;20072;-73
2022/01/13 09:32:47;;;;;;;30.75;13.65;;;;;;;;;;5032829;28;20030;-73
2022/01/13 09:35:13;;;;;;;23.25;9.10;;;;;;;;;;5032870;28;20487;-72
2022/01/13 09:37:39;;;;;;;15.30;7.50;;;;;;;;;;5033257;28;20041;-73
2022/01/13 09:40:07;;;;;;;26.98;12.57;;;;;;;;;;5032841;28;20456;-73
2022/01/13 09:42:34;;;;;;;15.85;6.88;;;;;;;;;;5033008;28;20029;-72
2022/01/13 09:45:01;;;;;;;22.75;10.30;;;;;;;;;;5032712;28;20025;-72
2022/01/13 09:47:29;;;;;;;52.67;19.10;;;;;;;;;;5033072;28;20111;-74
2022/01/13 09:49:55;;;;;;;21.08;9.05;;;;;;;;;;5032826;28;20391;-73
2022/01/13 09:52:21;;;;;;;29.05;13.43;;;;;;;;;;5032746;28;20491;-73
2022/01/13 09:54:48;;;;;;;20.98;9.38;;;;;;;;;;5032550;28;20048;-73
2022/01/13 09:57:14;;;;;;;17.60;7.75;;;;;;;;;;5032596;28;20021;-73
2022/01/13 09:59:41;;;;;;;13.95;6.95;;;;;;;;;;5032207;28;20029;-72
2022/01/13 10:02:07;;;;;;;29.40;10.50;;;;;;;;;;5032511;28;20441;-73
2022/01/13 10:04:46;;;;;;;27.83;11.77;;;;;;;;;;5014537;28;20025;-75
2022/01/13 10:07:17;;;;;;;22.25;9.57;;;;;;;;;;5029368;28;20546;-73
2022/01/13 10:09:53;;;;;;;24.48;9.40;;;;;;;;;;5032349;28;20021;-72
2022/01/13 10:12:34;;;;;;;18.67;6.90;;;;;;;;;;5032397;28;20454;-73
2022/01/13 10:17:26;;;;;;;20.67;7.53;;;;;;;;;;5032867;28;19912;-73
2022/01/13 10:19:56;;;;;;;36.53;15.07;;;;;;;;;;5032582;28;20033;-74
2022/01/13 10:22:24;;;;;;;11.27;5.05;;;;;;;;;;5033119;28;20021;-73
2022/01/13 10:24:55;;;;;;;23.83;9.18;;;;;;;;;;5032768;28;20036;-72
2022/01/13 10:27:23;;;;;;;32.35;12.63;;;;;;;;;;5031801;28;20108;-73
2022/01/13 10:29:56;;;;;;;26.77;10.25;;;;;;;;;;5014174;28;20041;-73
2022/01/13 10:32:41;;;;;;;17.30;8.05;;;;;;;;;;5032217;28;20104;-74
2022/01/13 10:35:10;;;;;;;17.83;7.53;;;;;;;;;;5014082;28;20017;-73
2022/01/13 10:37:40;;;;;;;17.30;7.30;;;;;;;;;;5032709;28;20092;-72
2022/01/13 10:40:09;;;;;;;23.30;9.98;;;;;;;;;;5032569;28;20021;-73
2022/01/13 10:45:07;;;;;;;21.75;9.77;;;;;;;;;;5032441;28;20456;-72
2022/01/13 10:47:34;;;;;;;14.63;4.82;;;;;;;;;;5032206;28;20033;-73
2022/01/13 10:50:11;;;;;;;21.05;7.65;;;;;;;;;;5031725;28;20029;-73
2022/01/13 10:52:37;;;;;;;12.57;5.57;;;;;;;;;;5032129;28;20026;-73
2022/01/13 10:55:04;;;;;;;20.02;8.88;;;;;;;;;;5031462;28;20071;-73
2022/01/13 10:57:30;;;;;;;21.10;9.45;;;;;;;;;;5031737;28;20021;-73
2022/01/13 10:59:57;;;;;;;15.63;6.32;;;;;;;;;;5014209;28;20021;-73
2022/01/13 11:02:23;;;;;;;15.07;6.40;;;;;;;;;;5013985;28;20060;-73
2022/01/13 11:04:49;;;;;;;12.35;5.40;;;;;;;;;;5031515;28;20071;-73
2022/01/13 11:07:15;;;;;;;14.70;6.35;;;;;;;;;;5027852;28;20056;-74
2022/01/13 11:09:45;;;;;;;9.65;4.85;;;;;;;;;;5019615;28;20056;-73
2022/01/13 11:12:12;;;;;;;14.52;7.05;;;;;;;;;;5031509;28;20116;-74
2022/01/13 11:14:43;;;;;;;18.38;7.15;;;;;;;;;;5012429;28;20029;-73
2022/01/13 11:17:12;;;;;;;20.67;9.35;;;;;;;;;;5012679;28;20325;-73
2022/01/13 11:19:41;;;;;;;16.38;7.75;;;;;;;;;;5030474;28;20018;-72
2022/01/13 11:22:08;;;;;;;16.55;7.35;;;;;;;;;;5030944;28;20018;-73
2022/01/13 11:24:34;;;;;;;9.73;5.47;;;;;;;;;;5030988;28;20471;-72
2022/01/13 11:27:01;;;;;;;13.93;5.97;;;;;;;;;;5031204;28;20032;-72
2022/01/13 11:29:28;;;;;;;19.77;8.50;;;;;;;;;;5035860;22;20341;-71
2022/01/13 11:31:57;;;;;;;20.00;6.88;;;;;;;;;;5032218;28;20053;-73
2022/01/13 11:34:23;;;;;;;11.05;4.93;;;;;;;;;;5029858;28;20060;-73
2022/01/13 11:36:49;;;;;;;11.27;5.40;;;;;;;;;;5031858;28;20041;-72
2022/01/13 11:39:15;;;;;;;18.15;6.82;;;;;;;;;;5033154;28;20037;-71
2022/01/13 11:42:02;;;;;;;14.52;6.90;;;;;;;;;;5036112;28;20018;-71
2022/01/13 11:44:28;;;;;;;13.73;6.30;;;;;;;;;;5035331;28;20372;-72
2022/01/13 11:46:54;;;;;;;17.40;6.50;;;;;;;;;;5036199;28;20391;-71
2022/01/13 11:49:25;;;;;;;18.90;8.02;;;;;;;;;;5036446;28;20030;-72
2022/01/13 11:52:02;;;;;;;17.55;8.02;;;;;;;;;;5036154;28;20025;-70
2022/01/13 11:54:33;;;;;;;23.00;9.82;;;;;;;;;;5035099;28;20133;-70
2022/01/13 11:56:59;;;;;;;;;;;;;;;;;;5036987;28;20404;-72
2022/01/13 11:59:25;;;;;;;12.90;5.75;;;;;;;;;;5036775;28;19963;-72
2022/01/13 12:01:51;;;;;;;22.25;8.95;;;;;;;;;;5036770;28;20030;-72
2022/01/13 12:04:24;;;;;;;21.50;8.43;;;;;;;;;;5034423;28;20112;-72
2022/01/13 12:06:49;;;;;;;6.65;3.50;;;;;;;;;;5035994;28;20033;-70
2022/01/13 12:09:21;;;;;;;12.15;4.93;;;;;;;;;;5034527;28;20395;-73
2022/01/13 12:11:53;;;;;;;10.38;4.97;;;;;;;;;;5033560;28;20320;-74
2022/01/13 12:14:27;;;;;;;19.77;7.78;;;;;;;;;;5034967;28;20095;-72
2022/01/13 12:16:53;;;;;;;10.93;4.50;;;;;;;;;;5031851;28;20464;-72
2022/01/13 12:19:33;;;;;;;13.65;5.15;;;;;;;;;;5031816;28;20030;-73
2022/01/13 12:22:05;;;;;;;10.68;5.78;;;;;;;;;;5023144;28;20040;-72
2022/01/13 12:24:50;;;;;;;11.40;5.35;;;;;;;;;;5014993;28;20025;-72
2022/01/13 12:27:17;;;;;;;19.55;6.45;;;;;;;;;;5015427;28;20457;-71
2022/01/13 12:29:45;;;;;;;13.93;5.40;;;;;;;;;;5027255;28;20037;-71
2022/01/13 12:32:11;;;;;;;17.02;6.72;;;;;;;;;;5035137;28;20030;-72
2022/01/13 12:34:39;;;;;;;17.60;8.13;;;;;;;;;;5045644;28;20056;-73
2022/01/13 12:37:14;;;;;;;12.10;5.88;;;;;;;;;;5055093;28;20025;-72
2022/01/13 12:39:43;;;;;;;10.27;4.63;;;;;;;;;;5055126;28;20021;-73
2022/01/13 12:42:16;;;;;;;9.68;3.95;;;;;;;;;;5058452;28;20025;-72
2022/01/13 12:47:27;;;;;;;8.85;3.65;;;;;;;;;;5057377;28;20410;-72
2022/01/13 12:49:53;;;;;;;11.80;5.03;;;;;;;;;;5058624;28;20047;-73
2022/01/13 12:52:21;;;;;;;15.15;4.32;;;;;;;;;;5045767;28;20077;-74
2022/01/13 12:54:47;;;;;;;15.43;7.40;;;;;;;;;;5042845;28;20025;-73
2022/01/13 12:57:14;;;;;;;7.60;3.67;;;;;;;;;;5040964;28;20026;-73
2022/01/13 12:59:40;;;;;;;8.93;4.60;;;;;;;;;;5035692;28;20033;-71
2022/01/13 13:02:08;;;;;;;16.65;5.13;;;;;;;;;;5035297;28;20040;-71
2022/01/13 13:04:39;;;;;;;9.88;4.75;;;;;;;;;;5034626;28;20025;-72
2022/01/13 13:07:08;;;;;;;10.45;4.25;;;;;;;;;;5034672;28;20021;-72
2022/01/13 13:09:34;;;;;;;9.60;3.80;;;;;;;;;;5034655;28;20021;-72
2022/01/13 13:12:02;;;;;;;10.93;5.07;;;;;;;;;;5034765;28;20033;-71
2022/01/13 13:14:34;;;;;;;11.73;4.55;;;;;;;;;;5034121;28;20053;-70
2022/01/13 13:17:01;;;;;;;13.25;5.20;;;;;;;;;;5034512;28;20056;-72
2022/01/13 13:19:27;;;;;;;14.80;4.65;;;;;;;;;;5036516;28;20034;-73
2022/01/13 13:21:53;;;;;;;13.63;5.35;;;;;;;;;;5053868;28;20029;-73
2022/01/13 13:24:22;;;;;;;12.30;5.75;;;;;;;;;;5035924;28;20029;-72
2022/01/13 13:26:49;;;;;;;14.82;6.78;;;;;;;;;;5053784;28;20033;-72
2022/01/13 13:29:25;;;;;;;7.72;3.55;;;;;;;;;;5053379;28;20512;-73
2022/01/13 13:31:54;;;;;;;12.77;5.15;;;;;;;;;;5053535;28;20025;-73
2022/01/13 13:34:20;;;;;;;13.20;4.32;;;;;;;;;;5050650;28;20064;-72
2022/01/13 13:36:47;;;;;;;8.73;3.72;;;;;;;;;;5053933;28;20025;-72
2022/01/13 13:39:17;;;;;;;9.23;4.07;;;;;;;;;;5054266;28;20021;-72
2022/01/13 13:41:44;;;;;;;13.18;6.25;;;;;;;;;;5053681;28;20100;-72
2022/01/13 13:44:13;;;;;;;9.20;4.75;;;;;;;;;;5054011;28;20022;-72
2022/01/13 13:46:39;;;;;;;12.65;4.90;;;;;;;;;;5053590;28;20021;-71
2022/01/13 13:49:05;;;;;;;11.00;5.78;;;;;;;;;;5051142;28;20021;-73
2022/01/13 13:51:33;;;;;;;13.02;4.72;;;;;;;;;;5051752;28;20032;-72
2022/01/13 13:54:07;;;;;;;19.33;8.52;;;;;;;;;;5052684;28;20028;-72
2022/01/13 13:56:45;;;;;;;10.50;5.07;;;;;;;;;;5052468;28;20029;-73
2022/01/13 13:59:42;;;;;;;13.65;4.60;;;;;;;;;;5031969;28;20017;-73
2022/01/13 14:02:19;;;;;;;11.80;4.93;;;;;;;;;;5030573;28;20030;-72
2022/01/13 14:04:46;;;;;;;17.63;6.97;;;;;;;;;;5032974;28;20486;-72
2022/01/13 14:07:19;;;;;;;12.45;5.75;;;;;;;;;;5049602;28;20029;-72
2022/01/13 14:09:45;;;;;;;14.23;4.13;;;;;;;;;;5053208;28;20094;-74
2022/01/13 14:12:12;;;;;;;8.63;4.00;;;;;;;;;;5053259;28;20395;-72
2022/01/13 14:14:39;;;;;;;13.00;5.10;;;;;;;;;;5053258;28;20494;-72
2022/01/13 14:17:06;;;;;;;18.70;5.68;;;;;;;;;;5054356;28;20049;-71
2022/01/13 14:19:32;;;;;;;16.15;7.13;;;;;;;;;;5053599;28;20033;-72
2022/01/13 14:21:58;;;;;;;17.23;7.25;;;;;;;;;;5053254;28;20024;-71
2022/01/13 14:24:32;;;;;;;13.10;4.93;;;;;;;;;;5053249;28;20028;-73
2022/01/13 14:27:24;;;;;;;17.77;6.60;;;;;;;;;;5054141;28;20090;-72
2022/01/13 14:29:51;;;;;;;11.35;5.38;;;;;;;;;;5049991;28;20146;-72
2022/01/13 14:32:17;;;;;;;13.40;4.43;;;;;;;;;;5035238;28;20033;-72
2022/01/13 14:34:44;;;;;;;17.08;5.72;;;;;;;;;;5052611;28;20021;-73
2022/01/13 14:37:11;;;;;;;7.43;3.55;;;;;;;;;;5053475;28;20025;-72
2022/01/13 14:39:36;;;;;;;8.50;3.70;;;;;;;;;;5052861;28;20021;-72
2022/01/13 14:42:03;;;;;;;13.27;4.30;;;;;;;;;;5052404;28;20079;-72
2022/01/13 14:44:29;;;;;;;8.02;2.90;;;;;;;;;;5051473;28;20027;-72
2022/01/13 14:46:57;;;;;;;15.73;5.28;;;;;;;;;;5053078;28;20041;-72
2022/01/13 14:49:28;;;;;;;11.68;4.75;;;;;;;;;;5052724;28;20029;-72
2022/01/13 14:51:54;;;;;;;7.95;3.95;;;;;;;;;;5052856;28;20021;-72
2022/01/13 14:54:20;;;;;;;8.23;4.03;;;;;;;;;;5052643;28;20028;-72
2022/01/13 14:56:46;;;;;;;12.25;5.03;;;;;;;;;;5054570;28;20059;-72
2022/01/13 14:59:13;;;;;;;8.45;3.90;;;;;;;;;;5053411;28;20525;-72
2022/01/13 15:01:43;;;;;;;14.10;3.00;;;;;;;;;;5051682;28;20100;-74
2022/01/13 15:04:09;;;;;;;6.15;3.15;;;;;;;;;;5051192;28;20487;-73